createdAt,value
2019-04-30T00:04:29.850Z,77975.08
2019-04-30T00:09:39.510Z,77970.09
2019-04-30T00:14:55.761Z,77994.06
2019-04-30T00:20:11.238Z,78006.05
2019-04-30T00:25:24.879Z,78006.05
2019-04-30T00:30:34.697Z,78016.03
2019-04-30T00:35:49.694Z,78010.04
2019-04-30T00:41:06.845Z,78010.04
2019-04-30T00:46:24.910Z,77968.09
2019-04-30T00:51:35.524Z,77978.08
2019-04-30T00:56:42.496Z,77970.09
2019-04-30T01:02:27.853Z,77985.07
2019-04-30T01:07:31.615Z,77983.08
2019-04-30T01:12:50.213Z,77974.09
2019-04-30T01:18:05.171Z,77990.06
2019-04-30T01:23:23.324Z,77983.08
2019-04-30T01:28:35.059Z,77991.06
2019-04-30T01:33:48.903Z,77995.06
2019-04-30T01:39:01.598Z,78001.05
2019-04-30T01:44:13.919Z,78002.05
2019-04-30T01:49:28.911Z,78008.05
2019-04-30T01:54:39.129Z,78014.03
2019-04-30T02:00:09.653Z,78004.05
2019-04-30T02:05:18.927Z,78010.04
2019-04-30T02:10:29.329Z,77998.05
2019-04-30T02:15:41.188Z,77986.07
2019-04-30T02:20:53.854Z,77968.09
2019-04-30T02:26:04.937Z,77956.11
2019-04-30T02:31:22.304Z,77961.10
2019-04-30T02:36:53.149Z,77986.07
2019-04-30T02:42:03.644Z,78010.04
2019-04-30T02:47:23.552Z,77990.06
2019-04-30T02:52:43.236Z,77986.07
2019-04-30T02:57:55.887Z,78002.05
2019-04-30T03:03:06.595Z,78037.00
2019-04-30T03:08:15.915Z,78017.03
2019-04-30T03:13:51.459Z,77994.06
2019-04-30T03:19:11.495Z,78019.03
2019-04-30T03:24:49.840Z,78010.04
2019-04-30T03:30:02.026Z,78011.04
2019-04-30T03:35:14.957Z,78030.02
2019-04-30T03:40:52.691Z,78010.04
2019-04-30T03:46:14.829Z,78016.03
2019-04-30T03:51:29.846Z,78037.00
2019-04-30T03:56:41.933Z,78014.03
2019-04-30T04:02:12.247Z,78006.05
2019-04-30T04:07:40.082Z,78031.02
2019-04-30T04:13:04.099Z,78034.01
2019-04-30T04:18:20.200Z,78034.01
2019-04-30T04:23:34.850Z,78043.99
2019-04-30T04:28:49.603Z,78028.02
2019-04-30T04:34:03.211Z,78027.02
2019-04-30T04:39:20.335Z,78030.02
2019-04-30T04:44:35.339Z,78024.02
2019-04-30T04:49:53.747Z,77992.06
2019-04-30T04:55:05.269Z,78006.05
2019-04-30T05:00:22.133Z,78001.05
2019-04-30T05:05:36.750Z,77988.06
2019-04-30T05:11:12.256Z,77988.06
2019-04-30T05:16:29.666Z,77984.07
2019-04-30T05:21:51.474Z,77980.08
2019-04-30T05:27:04.225Z,77994.06
2019-04-30T05:32:16.557Z,78005.05
2019-04-30T05:38:09.296Z,78015.03
2019-04-30T05:43:24.585Z,78018.03
2019-04-30T05:48:39.593Z,78008.05
2019-04-30T05:53:59.108Z,77976.08
2019-04-30T05:59:29.114Z,77967.09
2019-04-30T06:04:39.627Z,77985.07
2019-04-30T06:09:59.717Z,78002.05
2019-04-30T06:15:39.077Z,78008.05
2019-04-30T06:20:51.504Z,78003.05
2019-04-30T06:26:09.579Z,78015.03
2019-04-30T06:31:26.083Z,78012.03
2019-04-30T06:36:34.284Z,77958.11
2019-04-30T06:41:45.972Z,77932.14
2019-04-30T06:47:02.605Z,77936.13
2019-04-30T06:52:23.030Z,77936.13
2019-04-30T06:57:38.292Z,77921.16
2019-04-30T07:02:49.273Z,77970.09
2019-04-30T07:08:18.977Z,77966.09
2019-04-30T07:13:32.223Z,77960.10
2019-04-30T07:18:48.932Z,77951.11
2019-04-30T07:24:02.877Z,77944.13
2019-04-30T07:29:15.510Z,77934.14
2019-04-30T07:34:31.696Z,77916.16
2019-04-30T07:39:46.467Z,77895.19
2019-04-30T07:45:00.709Z,77914.16
2019-04-30T07:50:13.219Z,77919.16
2019-04-30T07:55:29.349Z,77935.13
2019-04-30T08:00:45.488Z,77908.17
2019-04-30T08:05:59.919Z,77910.17
2019-04-30T08:11:23.058Z,77902.18
2019-04-30T08:16:32.225Z,77938.13
2019-04-30T08:21:48.712Z,77915.16
2019-04-30T08:27:06.554Z,77888.20
2019-04-30T08:32:20.107Z,77861.23
2019-04-30T08:37:32.300Z,77880.20
2019-04-30T08:42:45.604Z,77881.20
2019-04-30T08:48:00.900Z,77880.20
2019-04-30T08:53:25.984Z,77869.22
2019-04-30T08:58:45.024Z,77864.23
2019-04-30T09:04:02.968Z,77850.25
2019-04-30T09:09:20.915Z,77842.26
2019-04-30T09:14:33.936Z,77807.30
2019-04-30T09:19:50.003Z,77830.27
2019-04-30T09:25:19.602Z,77888.20
2019-04-30T09:30:36.015Z,77912.17
2019-04-30T09:36:09.328Z,77920.16
2019-04-30T09:41:29.343Z,77869.22
2019-04-30T09:46:41.788Z,77840.26
2019-04-30T09:51:59.447Z,77872.22
2019-04-30T09:57:19.147Z,77838.27
2019-04-30T10:02:40.215Z,77894.19
2019-04-30T10:07:59.395Z,77822.28
2019-04-30T10:13:13.759Z,77789.33
2019-04-30T10:18:23.973Z,77884.20
2019-04-30T10:23:39.096Z,77870.22
2019-04-30T10:29:00.188Z,77862.23
2019-04-30T10:34:15.838Z,77850.25
2019-04-30T10:39:44.864Z,77704.45
2019-04-30T10:45:00.325Z,77646.52
2019-04-30T10:50:18.022Z,77607.58
2019-04-30T10:55:35.698Z,77554.65
2019-04-30T11:00:51.494Z,77561.64
2019-04-30T11:06:08.689Z,77568.63
2019-04-30T11:11:24.972Z,77548.66
2019-04-30T11:16:41.989Z,77536.67
2019-04-30T11:22:00.215Z,77482.75
2019-04-30T11:27:20.279Z,77618.56
2019-04-30T11:32:53.310Z,77660.50
2019-04-30T11:38:07.254Z,77628.55
2019-04-30T11:43:22.129Z,77663.50
2019-04-30T11:48:46.243Z,77642.53
2019-04-30T11:54:20.478Z,77637.53
2019-04-30T11:59:39.626Z,77587.61
2019-04-30T12:04:59.919Z,77576.63
2019-04-30T12:17:04.483Z,77662.50
2019-04-30T12:22:36.110Z,77629.55
2019-04-30T12:27:49.641Z,77571.63
2019-04-30T12:33:10.735Z,77473.77
2019-04-30T12:38:26.185Z,77452.80
2019-04-30T12:43:46.745Z,77493.73
2019-04-30T12:49:18.867Z,77452.80
2019-04-30T13:00:19.668Z,77309.00
2019-04-30T13:05:40.191Z,77225.13
2019-04-30T13:10:56.632Z,77237.11
2019-04-30T13:16:13.125Z,77346.95
2019-04-30T13:21:32.231Z,77378.91
2019-04-30T13:27:24.340Z,77318.98
2019-04-30T13:33:10.867Z,77372.91
2019-04-30T13:38:47.529Z,77392.88
2019-04-30T13:44:16.657Z,77332.97
2019-04-30T13:50:04.073Z,77337.96
2019-04-30T13:55:20.255Z,77400.88
2019-04-30T14:00:37.118Z,77394.88
2019-04-30T14:05:51.598Z,77410.86
2019-04-30T14:11:24.033Z,77356.94
2019-04-30T14:16:33.628Z,77313.00
2019-04-30T14:21:49.423Z,77332.97
2019-04-30T14:26:59.717Z,77395.88
2019-04-30T14:32:11.157Z,77364.92
2019-04-30T14:37:25.487Z,77295.02
2019-04-30T14:43:30.032Z,77315.00
2019-04-30T14:48:53.503Z,77269.06
2019-04-30T14:54:19.996Z,77299.02
2019-04-30T15:00:11.277Z,77424.84
2019-04-30T15:05:38.546Z,77427.83
2019-04-30T15:11:13.685Z,77460.78
2019-04-30T15:16:30.277Z,77465.78
2019-04-30T15:21:54.940Z,77462.78
2019-04-30T15:27:09.314Z,77450.80
2019-04-30T15:32:24.450Z,77428.83
2019-04-30T15:37:38.586Z,77379.90
2019-04-30T15:42:53.390Z,77434.82
2019-04-30T15:48:08.569Z,77409.86
2019-04-30T15:53:24.701Z,77339.95
2019-04-30T15:58:45.468Z,77369.91
2019-04-30T16:04:01.013Z,77492.73
2019-04-30T16:09:18.268Z,77434.82
2019-04-30T16:15:09.867Z,77429.83
2019-04-30T16:20:44.986Z,77437.81
2019-04-30T16:25:59.999Z,77503.72
2019-04-30T16:31:33.331Z,77570.63
2019-04-30T16:36:44.940Z,77584.61
2019-04-30T16:42:09.165Z,77582.61
2019-04-30T16:47:19.874Z,77558.64
2019-04-30T16:52:44.953Z,77542.67
2019-04-30T16:57:58.565Z,77533.68
2019-04-30T17:03:32.671Z,77524.70
2019-04-30T17:08:58.318Z,77524.70
2019-04-30T17:14:11.177Z,77517.70
2019-04-30T17:19:24.132Z,77520.70
2019-04-30T17:24:54.841Z,77540.67
2019-04-30T17:30:09.320Z,77536.67
2019-04-30T17:35:22.791Z,77557.64
2019-04-30T17:40:39.053Z,77576.63
2019-04-30T17:45:58.521Z,77590.60
2019-04-30T17:51:12.249Z,77603.58
2019-04-30T17:56:22.958Z,77618.56
2019-04-30T18:01:40.069Z,77623.55
2019-04-30T18:06:54.465Z,77633.54
2019-04-30T18:12:10.477Z,77655.52
2019-04-30T18:17:27.757Z,77688.47
2019-04-30T18:22:59.513Z,77697.45
2019-04-30T18:28:09.277Z,77718.42
2019-04-30T18:33:17.791Z,77738.40
2019-04-30T18:38:31.232Z,77750.38
2019-04-30T18:43:59.718Z,77771.35
2019-04-30T18:49:11.076Z,77812.30
2019-04-30T18:54:29.104Z,77842.26
2019-04-30T18:59:42.194Z,77861.23
2019-04-30T19:05:18.349Z,77882.20
2019-04-30T19:16:52.924Z,77907.17
2019-04-30T19:22:05.202Z,77921.16
2019-04-30T19:27:29.681Z,77924.15
2019-04-30T19:32:49.019Z,77940.13
2019-04-30T19:38:09.207Z,77957.11
2019-04-30T19:43:28.608Z,77967.09
2019-04-30T19:48:38.219Z,77985.07
2019-04-30T19:53:48.953Z,77990.06
2019-04-30T19:59:05.643Z,78001.05
2019-04-30T20:04:15.136Z,78019.03
2019-04-30T20:09:31.429Z,78029.02
2019-04-30T20:14:50.346Z,78033.01
2019-04-30T20:20:03.495Z,78029.02
2019-04-30T20:25:36.002Z,78030.02
2019-04-30T20:30:48.985Z,78021.02
2019-04-30T20:36:04.233Z,78002.05
2019-04-30T20:46:49.117Z,78010.04
2019-04-30T20:52:08.834Z,78005.05
2019-04-30T20:57:23.747Z,78016.03
2019-04-30T21:02:32.706Z,78023.02
2019-04-30T21:07:46.023Z,78010.04
2019-04-30T21:13:04.057Z,78016.03
2019-04-30T21:18:19.606Z,78008.05
2019-04-30T21:24:10.977Z,77993.06
2019-04-30T21:29:21.212Z,77999.05
2019-04-30T21:34:40.908Z,78015.03
2019-04-30T21:39:51.168Z,78026.02
2019-04-30T21:45:04.836Z,78044.99
2019-04-30T21:50:19.703Z,78059.97
2019-04-30T21:55:35.636Z,78070.96
2019-04-30T22:01:12.066Z,78065.97
2019-04-30T22:06:29.637Z,78084.94
2019-04-30T22:11:44.204Z,78096.93
2019-04-30T22:16:59.284Z,78095.93
2019-04-30T22:22:12.044Z,78107.91
2019-04-30T22:27:25.495Z,78111.91
2019-04-30T22:32:59.476Z,78096.93
2019-04-30T22:38:18.942Z,78092.94
2019-04-30T22:43:31.196Z,78094.93
2019-04-30T22:48:48.969Z,78105.92
2019-04-30T22:54:01.823Z,78120.89
2019-04-30T22:59:15.848Z,78122.89
2019-04-30T23:04:40.822Z,78113.91
2019-04-30T23:09:54.656Z,78099.92
2019-04-30T23:15:05.817Z,78097.92
2019-04-30T23:25:54.985Z,78101.92
2019-04-30T23:31:06.142Z,78121.89
2019-04-30T23:36:36.372Z,78135.88
2019-04-30T23:41:52.688Z,78115.91
2019-04-30T23:47:13.241Z,78113.91
2019-04-30T23:52:26.726Z,78093.93
2019-04-30T23:57:44.299Z,78086.94
